Marathon Airport Marathon CA
ICAO: CYSP
IATA: YSP
Category: Medium
Scheduled Services: No

Elevation: 1035 ft
TransAlt. 3400 ft.

Airport Communications:
WINNIPEG CNTR:134.075
WINNIPEG RDO:123.55
ATF/UNICOM:122.8

CYSP Zoom In..

Runways:

(A) RW 16 length 3933 ft width 100 ft
---- / hdg 159

(B) RW 34 length 3933 ft width 100 ft
---- / hdg 339

Location; CYSP
Day. 14 / Time. 14.00 Zulu
* Altimeter: 29.83
* Temperature: 21° c. 69.8°f.
* Wind from: 320° Speed 03 kn.
Dewpoint: 16° c.
Visibility: 6 Statute Miles.
Clouds: Few 400 ft.
Clouds: Scattered 1000 ft.
Conditions: Haze.Conditions: Haze.

CYSP 141400Z 32003KT 290V010 6SM HZ FEW004 SCT100 21/16 A2983 RMK SF2AC1 HZ NW-SW HRZN SLP105 DENSITY ALT 2100FT


Wind From 320°
Speed 03 kn.

 
 
jpsmedia.com for Web Design worldairports.se 2018   terms of use